Time,TemperatureF,DewpointF,PressureIn,WindDirection,WindDirectionDegrees,WindSpeedMPH,WindSpeedGustMPH,Humidity,HourlyPrecipIn,Conditions,Clouds,dailyrainin,SoftwareType,DateUTC
2013-04-08 00:06:00,67.7,65.0,29.93,East,92,2.0,9.0,90,0.00,,,0.00,weatherlink.com 1.10,2013-04-08 05:06:00,
2013-04-08 00:21:00,67.7,65.0,29.93,SSW,200,8.0,12.0,90,0.00,,,0.00,weatherlink.com 1.10,2013-04-08 05:21:00,
2013-04-08 00:36:00,67.5,64.0,29.93,SSE,157,8.0,8.0,90,0.00,,,0.00,weatherlink.com 1.10,2013-04-08 05:36:00,
2013-04-08 00:51:00,67.6,65.0,29.93,SSE,155,6.0,12.0,90,0.00,,,0.00,weatherlink.com 1.10,2013-04-08 05:51:00,
2013-04-08 01:06:00,67.8,65.0,29.93,SW,219,3.0,11.0,90,0.00,,,0.00,weatherlink.com 1.10,2013-04-08 06:06:00,
2013-04-08 01:21:00,67.8,64.0,29.92,SE,145,6.0,13.0,89,0.00,,,0.00,weatherlink.com 1.10,2013-04-08 06:21:00,
2013-04-08 01:36:00,67.8,64.0,29.92,South,179,6.0,13.0,89,0.00,,,0.00,weatherlink.com 1.10,2013-04-08 06:36:00,
2013-04-08 01:51:00,67.7,65.0,29.92,South,177,6.0,13.0,90,0.00,,,0.00,weatherlink.com 1.10,2013-04-08 06:51:00,
2013-04-08 02:06:00,67.8,65.0,29.91,South,174,3.0,16.0,90,0.00,,,0.00,weatherlink.com 1.10,2013-04-08 07:06:00,
2013-04-08 02:21:00,67.7,65.0,29.91,ESE,113,9.0,14.0,90,0.00,,,0.00,weatherlink.com 1.10,2013-04-08 07:21:00,
2013-04-08 02:36:00,67.5,64.0,29.91,SSE,165,6.0,12.0,90,0.00,,,0.00,weatherlink.com 1.10,2013-04-08 07:36:00,
2013-04-08 02:51:00,67.3,65.0,29.90,SSW,211,4.0,17.0,91,0.00,,,0.00,weatherlink.com 1.10,2013-04-08 07:51:00,
2013-04-08 03:06:00,67.1,64.0,29.90,SSE,163,4.0,11.0,91,0.00,,,0.00,weatherlink.com 1.10,2013-04-08 08:06:00,
2013-04-08 03:21:00,66.9,64.0,29.89,South,183,7.0,15.0,92,0.00,,,0.00,weatherlink.com 1.10,2013-04-08 08:21:00,
2013-04-08 03:37:00,66.9,64.0,29.89,East,85,3.0,12.0,92,0.00,,,0.00,weatherlink.com 1.10,2013-04-08 08:37:00,
2013-04-08 03:52:00,66.9,65.0,29.89,SSW,200,6.0,8.0,93,0.00,,,0.00,weatherlink.com 1.10,2013-04-08 08:52:00,
2013-04-08 04:07:00,66.9,65.0,29.88,SSE,149,4.0,11.0,93,0.00,,,0.00,weatherlink.com 1.10,2013-04-08 09:07:00,
2013-04-08 04:22:00,66.9,65.0,29.89,SSE,153,7.0,10.0,93,0.00,,,0.00,weatherlink.com 1.10,2013-04-08 09:22:00,
2013-04-08 04:37:00,67.1,65.0,29.88,WSW,242,1.0,14.0,93,0.00,,,0.00,weatherlink.com 1.10,2013-04-08 09:37:00,
2013-04-08 04:52:00,67.1,65.0,29.89,South,173,7.0,8.0,93,0.00,,,0.00,weatherlink.com 1.10,2013-04-08 09:52:00,
2013-04-08 05:07:00,67.3,65.0,29.89,South,170,1.0,5.0,93,0.00,,,0.00,weatherlink.com 1.10,2013-04-08 10:07:00,
2013-04-08 05:22:00,67.4,65.0,29.89,SSE,153,3.0,9.0,93,0.00,,,0.00,weatherlink.com 1.10,2013-04-08 10:22:00,
2013-04-08 05:37:00,67.6,66.0,29.89,South,191,4.0,9.0,93,0.00,,,0.00,weatherlink.com 1.10,2013-04-08 10:37:00,
2013-04-08 05:52:00,67.6,66.0,29.89,SE,134,5.0,11.0,93,0.00,,,0.00,weatherlink.com 1.10,2013-04-08 10:52:00,
2013-04-08 06:07:00,67.7,66.0,29.89,South,186,2.0,9.0,93,0.00,,,0.00,weatherlink.com 1.10,2013-04-08 11:07:00,
2013-04-08 06:22:00,67.7,66.0,29.89,SE,132,5.0,11.0,93,0.00,,,0.00,weatherlink.com 1.10,2013-04-08 11:22:00,
2013-04-08 06:37:00,67.7,66.0,29.89,SSE,154,6.0,10.0,93,0.00,,,0.00,weatherlink.com 1.10,2013-04-08 11:37:00,
2013-04-08 06:52:00,67.7,66.0,29.89,SE,130,3.0,12.0,93,0.00,,,0.00,weatherlink.com 1.10,2013-04-08 11:52:00,
2013-04-08 07:08:00,67.6,66.0,29.89,SE,139,11.0,13.0,93,0.00,,,0.00,weatherlink.com 1.10,2013-04-08 12:08:00,
2013-04-08 07:38:00,67.8,66.0,29.90,South,171,9.0,11.0,93,0.00,,,0.00,weatherlink.com 1.10,2013-04-08 12:38:00,
2013-04-08 07:53:00,68.3,66.0,29.91,South,188,3.0,10.0,93,0.00,,,0.00,weatherlink.com 1.10,2013-04-08 12:53:00,
2013-04-08 08:08:00,69.0,66.0,29.91,SSE,165,2.0,11.0,91,0.00,,,0.00,weatherlink.com 1.10,2013-04-08 13:08:00,
2013-04-08 08:23:00,69.6,67.0,29.91,SE,132,6.0,13.0,91,0.00,,,0.00,weatherlink.com 1.10,2013-04-08 13:23:00,
2013-04-08 08:38:00,70.1,67.0,29.91,South,180,8.0,12.0,89,0.00,,,0.00,weatherlink.com 1.10,2013-04-08 13:38:00,
2013-04-08 08:53:00,71.3,67.0,29.91,South,170,6.0,14.0,86,0.00,,,0.00,weatherlink.com 1.10,2013-04-08 13:53:00,
2013-04-08 09:24:00,72.4,67.0,29.91,SSE,148,4.0,11.0,83,0.00,,,0.00,weatherlink.com 1.10,2013-04-08 14:24:00,
2013-04-08 09:54:00,72.7,65.0,29.92,South,179,18.0,24.0,77,0.00,,,0.00,weatherlink.com 1.10,2013-04-08 14:54:00,
2013-04-08 10:09:00,72.6,65.0,29.92,SE,145,7.0,22.0,78,0.00,,,0.00,weatherlink.com 1.10,2013-04-08 15:09:00,
2013-04-08 10:24:00,73.1,65.0,29.92,SW,225,10.0,22.0,77,0.00,,,0.00,weatherlink.com 1.10,2013-04-08 15:24:00,
2013-04-08 10:40:00,74.6,66.0,29.93,SW,214,9.0,13.0,75,0.00,,,0.00,weatherlink.com 1.10,2013-04-08 15:40:00,
2013-04-08 10:55:00,74.2,65.0,29.93,South,172,14.0,22.0,74,0.00,,,0.00,weatherlink.com 1.10,2013-04-08 15:55:00,
2013-04-08 11:10:00,74.3,65.0,29.93,WSW,245,19.0,24.0,74,0.00,,,0.00,weatherlink.com 1.10,2013-04-08 16:10:00,
2013-04-08 11:25:00,74.6,65.0,29.94,SSW,203,12.0,24.0,72,0.00,,,0.00,weatherlink.com 1.10,2013-04-08 16:25:00,
2013-04-08 11:40:00,75.0,65.0,29.93,SE,143,11.0,24.0,70,0.00,,,0.00,weatherlink.com 1.10,2013-04-08 16:40:00,
2013-04-08 11:55:00,75.8,65.0,29.93,SSE,165,10.0,20.0,69,0.00,,,0.00,weatherlink.com 1.10,2013-04-08 16:55:00,
2013-04-08 12:10:00,76.1,65.0,29.93,SW,228,11.0,21.0,69,0.00,,,0.00,weatherlink.com 1.10,2013-04-08 17:10:00,
2013-04-08 12:25:00,75.8,64.0,29.93,SSE,152,9.0,23.0,68,0.00,,,0.00,weatherlink.com 1.10,2013-04-08 17:25:00,
2013-04-08 12:40:00,74.9,64.0,29.93,SW,224,9.0,25.0,69,0.00,,,0.00,weatherlink.com 1.10,2013-04-08 17:40:00,
2013-04-08 12:55:00,75.0,64.0,29.92,SSE,162,9.0,21.0,69,0.00,,,0.00,weatherlink.com 1.10,2013-04-08 17:55:00,
2013-04-08 13:10:00,75.8,65.0,29.92,SW,215,5.0,23.0,70,0.00,,,0.00,weatherlink.com 1.10,2013-04-08 18:10:00,
2013-04-08 13:25:00,76.4,65.0,29.92,SSE,160,8.0,21.0,67,0.00,,,0.00,weatherlink.com 1.10,2013-04-08 18:25:00,
2013-04-08 13:40:00,77.2,65.0,29.91,SSE,153,8.0,25.0,66,0.00,,,0.00,weatherlink.com 1.10,2013-04-08 18:40:00,
2013-04-08 13:55:00,76.6,65.0,29.91,South,186,9.0,26.0,67,0.00,,,0.00,weatherlink.com 1.10,2013-04-08 18:55:00,
2013-04-08 14:10:00,77.2,65.0,29.90,SSE,156,16.0,20.0,66,0.00,,,0.00,weatherlink.com 1.10,2013-04-08 19:10:00,
2013-04-08 14:25:00,77.6,66.0,29.91,SW,214,16.0,26.0,67,0.00,,,0.00,weatherlink.com 1.10,2013-04-08 19:25:00,
2013-04-08 14:41:00,77.4,65.0,29.90,SSW,212,9.0,20.0,66,0.00,,,0.00,weatherlink.com 1.10,2013-04-08 19:41:00,
2013-04-08 15:41:00,76.7,64.0,29.89,SSW,193,15.0,22.0,64,0.00,,,0.00,weatherlink.com 1.10,2013-04-08 20:41:00,
2013-04-08 15:56:00,77.5,65.0,29.89,SSW,207,5.0,21.0,65,0.00,,,0.00,weatherlink.com 1.10,2013-04-08 20:56:00,
2013-04-08 16:11:00,77.6,64.0,29.88,ESE,122,11.0,20.0,64,0.00,,,0.00,weatherlink.com 1.10,2013-04-08 21:11:00,
2013-04-08 16:56:00,75.0,65.0,29.87,ESE,105,7.0,20.0,70,0.00,,,0.00,weatherlink.com 1.10,2013-04-08 21:56:00,
2013-04-08 17:11:00,75.2,65.0,29.86,SSE,163,3.0,15.0,70,0.00,,,0.00,weatherlink.com 1.10,2013-04-08 22:11:00,
2013-04-08 17:26:00,74.3,65.0,29.86,SSW,193,16.0,18.0,72,0.00,,,0.00,weatherlink.com 1.10,2013-04-08 22:26:00,
2013-04-08 17:42:00,74.4,65.0,29.86,SSW,195,6.0,17.0,73,0.00,,,0.00,weatherlink.com 1.10,2013-04-08 22:42:00,
2013-04-08 17:57:00,74.5,65.0,29.87,South,176,7.0,20.0,73,0.00,,,0.00,weatherlink.com 1.10,2013-04-08 22:57:00,
2013-04-08 18:12:00,74.3,65.0,29.88,SE,139,5.0,16.0,74,0.00,,,0.00,weatherlink.com 1.10,2013-04-08 23:12:00,
2013-04-08 18:27:00,73.9,66.0,29.88,South,174,5.0,15.0,76,0.00,,,0.00,weatherlink.com 1.10,2013-04-08 23:27:00,
2013-04-08 18:42:00,73.9,66.0,29.87,South,172,5.0,12.0,76,0.00,,,0.00,weatherlink.com 1.10,2013-04-08 23:42:00,
2013-04-08 18:57:00,73.5,66.0,29.87,South,180,8.0,14.0,77,0.00,,,0.00,weatherlink.com 1.10,2013-04-08 23:57:00,
2013-04-08 19:13:00,73.1,66.0,29.86,SSW,194,14.0,15.0,78,0.00,,,0.00,weatherlink.com 1.10,2013-04-09 00:13:00,
2013-04-08 19:27:00,72.9,66.0,29.87,ESE,109,4.0,13.0,79,0.00,,,0.00,weatherlink.com 1.10,2013-04-09 00:27:00,
2013-04-08 19:42:00,72.8,66.0,29.87,SSE,167,6.0,14.0,79,0.00,,,0.00,weatherlink.com 1.10,2013-04-09 00:42:00,
2013-04-08 19:58:00,72.6,66.0,29.86,ESE,109,10.0,13.0,80,0.00,,,0.00,weatherlink.com 1.10,2013-04-09 00:58:00,
2013-04-08 20:13:00,72.3,66.0,29.86,SE,142,7.0,12.0,81,0.00,,,0.00,weatherlink.com 1.10,2013-04-09 01:13:00,
2013-04-08 20:28:00,72.1,66.0,29.86,SSE,160,4.0,12.0,81,0.00,,,0.00,weatherlink.com 1.10,2013-04-09 01:28:00,
2013-04-08 20:43:00,71.9,66.0,29.87,SSE,157,3.0,14.0,82,0.00,,,0.00,weatherlink.com 1.10,2013-04-09 01:43:00,
2013-04-08 20:58:00,71.8,66.0,29.88,SE,126,1.0,12.0,82,0.00,,,0.00,weatherlink.com 1.10,2013-04-09 01:58:00,
2013-04-08 21:13:00,71.8,66.0,29.87,East,95,3.0,11.0,82,0.00,,,0.00,weatherlink.com 1.10,2013-04-09 02:13:00,
2013-04-08 21:28:00,71.6,66.0,29.88,SSE,157,3.0,8.0,83,0.00,,,0.00,weatherlink.com 1.10,2013-04-09 02:28:00,
2013-04-08 21:42:00,71.4,66.0,29.88,SE,128,9.0,13.0,84,0.00,,,0.00,weatherlink.com 1.10,2013-04-09 02:42:00,
2013-04-08 21:57:00,71.2,66.0,29.89,SSW,198,9.0,25.0,84,0.00,,,0.00,weatherlink.com 1.10,2013-04-09 02:57:00,
2013-04-08 22:13:00,71.1,66.0,29.88,SSE,158,9.0,13.0,85,0.00,,,0.00,weatherlink.com 1.10,2013-04-09 03:13:00,
2013-04-08 22:28:00,71.1,67.0,29.88,ESE,121,3.0,12.0,86,0.00,,,0.00,weatherlink.com 1.10,2013-04-09 03:28:00,
2013-04-08 22:43:00,70.9,67.0,29.87,East,89,2.0,14.0,86,0.00,,,0.00,weatherlink.com 1.10,2013-04-09 03:43:00,
2013-04-08 22:58:00,70.8,67.0,29.87,East,86,8.0,13.0,87,0.00,,,0.00,weatherlink.com 1.10,2013-04-09 03:58:00,
2013-04-08 23:13:00,70.7,67.0,29.87,SE,142,3.0,16.0,87,0.00,,,0.00,weatherlink.com 1.10,2013-04-09 04:13:00,
2013-04-08 23:28:00,70.7,67.0,29.87,South,169,10.0,15.0,87,0.00,,,0.00,weatherlink.com 1.10,2013-04-09 04:28:00,
2013-04-08 23:43:00,70.6,67.0,29.88,SSE,152,10.0,14.0,87,0.00,,,0.00,weatherlink.com 1.10,2013-04-09 04:43:00,